createdAt,value
2022-09-05T00:01:31.593Z,16.61
2022-09-05T00:04:46.426Z,16.75
2022-09-05T00:07:57.998Z,16.69
2022-09-05T00:10:35.973Z,16.52
2022-09-05T00:13:09.038Z,16.38
2022-09-05T00:15:51.807Z,16.56
2022-09-05T00:24:20.153Z,16.54
2022-09-05T00:24:26.254Z,16.46
2022-09-05T00:25:35.659Z,16.50
2022-09-05T00:28:25.273Z,16.42
2022-09-05T00:31:53.538Z,16.32
2022-09-05T00:34:06.608Z,16.33
2022-09-05T00:36:54.798Z,16.22
2022-09-05T00:39:38.404Z,16.26
2022-09-05T00:42:11.251Z,16.15
2022-09-05T00:44:50.966Z,16.15
2022-09-05T00:47:33.445Z,16.08
2022-09-05T00:50:07.566Z,16.16
2022-09-05T00:52:42.952Z,15.96
2022-09-05T00:55:58.804Z,16.01
2022-09-05T00:58:46.257Z,15.99
2022-09-05T01:01:29.391Z,15.98
2022-09-05T01:04:19.303Z,16.11
2022-09-05T01:07:03.665Z,15.84
2022-09-05T01:09:57.926Z,15.90
2022-09-05T01:13:05.287Z,15.93
2022-09-05T01:15:56.917Z,15.89
2022-09-05T01:18:32.721Z,15.70
2022-09-05T01:21:17.353Z,15.69
2022-09-05T01:24:07.428Z,15.73
2022-09-05T01:26:48.117Z,15.59
2022-09-05T01:29:40.062Z,15.51
2022-09-05T01:32:26.855Z,15.52
2022-09-05T01:35:01.236Z,15.36
2022-09-05T01:38:13.243Z,15.47
2022-09-05T01:41:04.626Z,15.47
2022-09-05T01:43:53.081Z,15.49
2022-09-05T01:46:34.938Z,15.38
2022-09-05T01:49:41.943Z,15.36
2022-09-05T01:52:29.134Z,15.21
2022-09-05T01:55:26.954Z,15.33
2022-09-05T01:58:16.332Z,15.38
2022-09-05T02:01:32.582Z,15.15
2022-09-05T02:04:08.634Z,15.36
2022-09-05T02:06:52.659Z,15.16
2022-09-05T02:09:40.162Z,15.11
2022-09-05T02:12:15.785Z,15.09
2022-09-05T02:14:45.244Z,15.05
2022-09-05T02:17:50.638Z,15.03
2022-09-05T02:20:26.654Z,14.89
2022-09-05T02:22:56.053Z,15.04
2022-09-05T02:26:01.060Z,15.20
2022-09-05T02:28:43.538Z,15.02
2022-09-05T02:31:39.339Z,14.96
2022-09-05T02:34:45.026Z,14.93
2022-09-05T02:38:51.053Z,15.05
2022-09-05T02:45:19.183Z,14.81
2022-09-05T02:45:21.088Z,14.93
2022-09-05T02:46:42.135Z,14.69
2022-09-05T02:51:50.829Z,14.88
2022-09-05T02:57:28.839Z,14.93
2022-09-05T02:57:47.027Z,14.85
2022-09-05T02:58:07.217Z,14.61
2022-09-05T03:00:44.394Z,14.70
2022-09-05T03:03:34.892Z,14.76
2022-09-05T03:06:34.959Z,14.78
2022-09-05T03:09:35.604Z,14.66
2022-09-05T03:12:29.238Z,14.61
2022-09-05T03:15:22.389Z,14.64
2022-09-05T03:18:21.046Z,14.60
2022-09-05T03:21:22.327Z,14.61
2022-09-05T03:24:22.975Z,14.47
2022-09-05T03:27:35.486Z,14.54
2022-09-05T03:30:21.364Z,14.45
2022-09-05T03:33:25.237Z,14.30
2022-09-05T03:36:28.352Z,14.39
2022-09-05T03:39:19.521Z,14.42
2022-09-05T03:42:02.924Z,14.31
2022-09-05T03:44:54.144Z,14.38
2022-09-05T03:47:37.655Z,14.27
2022-09-05T03:57:04.688Z,14.14
2022-09-05T03:57:17.190Z,14.18
2022-09-05T03:57:32.255Z,14.38
2022-09-05T04:00:02.364Z,14.40
2022-09-05T04:05:38.003Z,14.21
2022-09-05T04:08:13.435Z,14.17
2022-09-05T04:08:38.696Z,14.04
2022-09-05T04:11:15.729Z,14.14
2022-09-05T04:13:51.101Z,14.13
2022-09-05T04:16:20.116Z,14.33
2022-09-05T04:19:11.390Z,14.15
2022-09-05T04:22:14.313Z,13.97
2022-09-05T04:25:03.950Z,13.98
2022-09-05T04:27:36.215Z,14.02
2022-09-05T04:30:39.862Z,14.04
2022-09-05T04:33:36.716Z,14.06
2022-09-05T04:36:23.795Z,14.18
2022-09-05T04:39:18.948Z,13.99
2022-09-05T04:42:11.067Z,14.03
2022-09-05T04:44:44.359Z,14.01
2022-09-05T04:47:23.622Z,14.02
2022-09-05T04:50:00.842Z,13.87
2022-09-05T04:53:05.007Z,13.84
2022-09-05T04:55:50.927Z,13.80
2022-09-05T04:59:20.272Z,13.80
2022-09-05T05:06:05.152Z,13.83
2022-09-05T05:06:11.542Z,13.70
2022-09-05T05:07:30.243Z,13.69
2022-09-05T05:10:45.262Z,13.67
2022-09-05T05:17:59.820Z,13.77
2022-09-05T05:18:06.251Z,13.74
2022-09-05T05:19:21.561Z,13.85
2022-09-05T05:21:52.567Z,13.86
2022-09-05T05:24:28.735Z,13.84
2022-09-05T05:27:05.306Z,13.85
2022-09-05T05:29:43.440Z,13.86
2022-09-05T05:32:26.153Z,14.02
2022-09-05T05:35:23.237Z,14.12
2022-09-05T05:37:56.000Z,14.15
2022-09-05T05:40:31.633Z,14.08
2022-09-05T05:43:15.692Z,14.04
2022-09-05T05:45:42.886Z,14.07
2022-09-05T05:48:18.271Z,14.22
2022-09-05T05:51:20.055Z,14.11
2022-09-05T05:54:16.404Z,14.31
2022-09-05T05:56:52.408Z,14.43
2022-09-05T05:59:56.317Z,14.52
2022-09-05T06:02:46.695Z,14.63
2022-09-05T06:05:59.304Z,14.70
2022-09-05T06:14:51.311Z,14.74
2022-09-05T06:15:06.149Z,14.87
2022-09-05T06:15:40.360Z,14.86
2022-09-05T06:18:19.120Z,14.94
2022-09-05T06:22:10.169Z,15.00
2022-09-05T06:25:05.551Z,15.10
2022-09-05T06:28:19.158Z,15.05
2022-09-05T06:31:30.185Z,15.20
2022-09-05T06:34:33.118Z,15.24
2022-09-05T06:37:03.400Z,15.22
2022-09-05T06:40:05.912Z,15.42
2022-09-05T06:42:44.294Z,15.40
2022-09-05T06:45:34.286Z,15.46
2022-09-05T06:48:24.907Z,15.52
2022-09-05T06:51:44.729Z,15.55
2022-09-05T06:54:11.419Z,15.60
2022-09-05T06:57:23.990Z,15.62
2022-09-05T07:00:05.815Z,15.74
2022-09-05T07:03:00.638Z,15.79
2022-09-05T07:05:45.491Z,15.89
2022-09-05T07:08:34.717Z,16.03
2022-09-05T07:11:15.860Z,16.14
2022-09-05T07:14:10.408Z,16.30
2022-09-05T07:16:50.867Z,16.43
2022-09-05T07:19:41.211Z,16.57
2022-09-05T07:22:47.966Z,16.69
2022-09-05T07:25:22.795Z,16.81
2022-09-05T07:28:29.103Z,16.97
2022-09-05T07:31:01.096Z,17.10
2022-09-05T07:33:31.109Z,17.23
2022-09-05T07:36:08.699Z,17.31
2022-09-05T07:38:52.040Z,17.39
2022-09-05T07:41:29.787Z,17.53
2022-09-05T07:44:05.007Z,17.67
2022-09-05T07:46:33.645Z,17.77
2022-09-05T07:49:07.266Z,17.86
2022-09-05T07:56:48.066Z,17.94
2022-09-05T07:57:06.014Z,18.07
2022-09-05T07:57:51.893Z,18.20
2022-09-05T08:00:25.872Z,18.30
2022-09-05T08:02:58.093Z,18.44
2022-09-05T08:05:35.916Z,18.56
2022-09-05T08:08:09.854Z,18.58
2022-09-05T08:11:24.015Z,18.62
2022-09-05T08:13:46.450Z,18.69
2022-09-05T08:16:23.157Z,18.80
2022-09-05T08:19:24.779Z,18.88
2022-09-05T08:21:53.718Z,18.96
2022-09-05T08:24:26.780Z,19.10
2022-09-05T08:27:04.622Z,19.23
2022-09-05T08:29:36.364Z,19.30
2022-09-05T08:32:09.539Z,19.44
2022-09-05T08:34:53.961Z,19.53
2022-09-05T08:37:23.014Z,19.59
2022-09-05T08:39:54.327Z,19.67
2022-09-05T08:42:58.755Z,19.75
2022-09-05T08:46:39.789Z,19.84
2022-09-05T08:49:11.270Z,19.95
2022-09-05T08:51:54.502Z,20.06
2022-09-05T08:54:21.921Z,20.19
2022-09-05T08:57:07.632Z,20.29
2022-09-05T09:00:19.057Z,20.44
2022-09-05T09:03:12.355Z,20.53
2022-09-05T09:06:12.704Z,20.66
2022-09-05T09:09:25.279Z,20.85
2022-09-05T09:11:56.987Z,20.94
2022-09-05T09:14:51.295Z,21.10
2022-09-05T09:17:43.001Z,21.23
2022-09-05T09:20:36.525Z,21.38
2022-09-05T09:23:39.783Z,21.51
2022-09-05T09:26:18.280Z,21.70
2022-09-05T09:28:55.539Z,21.77
2022-09-05T09:31:33.620Z,21.84
2022-09-05T09:34:18.646Z,21.87
2022-09-05T09:37:11.079Z,21.96
2022-09-05T09:40:05.377Z,21.86
2022-09-05T09:42:40.728Z,21.94
2022-09-05T09:45:34.040Z,22.17
2022-09-05T09:48:09.674Z,22.46
2022-09-05T09:50:59.336Z,22.61
2022-09-05T09:53:57.977Z,22.86
2022-09-05T09:57:11.580Z,23.04
2022-09-05T09:59:57.546Z,23.24
2022-09-05T10:07:38.171Z,23.39
2022-09-05T10:10:45.545Z,23.59
2022-09-05T10:10:49.224Z,23.84
2022-09-05T10:12:16.361Z,23.68
2022-09-05T10:15:09.583Z,23.46
2022-09-05T10:17:55.202Z,23.67
2022-09-05T10:20:24.978Z,23.97
2022-09-05T10:22:56.698Z,24.20
2022-09-05T10:25:48.530Z,24.35
2022-09-05T10:28:40.015Z,24.48
2022-09-05T10:34:29.560Z,24.51
2022-09-05T10:35:14.164Z,24.75
2022-09-05T10:37:43.515Z,24.98
2022-09-05T10:40:14.840Z,25.06
2022-09-05T10:43:00.761Z,25.01
2022-09-05T10:45:46.986Z,24.84
2022-09-05T10:48:19.479Z,24.46
2022-09-05T10:51:01.025Z,24.30
2022-09-05T10:53:45.295Z,24.40
2022-09-05T10:56:16.546Z,24.16
2022-09-05T10:59:53.261Z,24.24
2022-09-05T11:02:27.979Z,24.52
2022-09-05T11:05:25.297Z,24.97
2022-09-05T11:08:19.759Z,25.32
2022-09-05T11:10:52.484Z,25.63
2022-09-05T11:13:30.791Z,25.82
2022-09-05T11:16:18.180Z,25.69
2022-09-05T11:19:08.968Z,25.67
2022-09-05T11:22:04.179Z,25.64
2022-09-05T11:25:00.249Z,25.71
2022-09-05T11:27:34.560Z,25.89
2022-09-05T11:30:04.376Z,26.07
2022-09-05T11:39:46.769Z,26.14
2022-09-05T11:39:50.616Z,26.04
2022-09-05T11:40:07.750Z,26.43
2022-09-05T11:42:55.371Z,26.62
2022-09-05T11:45:54.414Z,26.68
2022-09-05T11:48:41.891Z,26.21
2022-09-05T11:51:58.383Z,25.93
2022-09-05T11:54:49.927Z,25.54
2022-09-05T11:57:44.387Z,25.33
2022-09-05T12:00:34.512Z,25.05
2022-09-05T12:03:57.587Z,24.90
2022-09-05T12:06:38.176Z,25.07
2022-09-05T12:09:29.614Z,25.67
2022-09-05T12:12:39.552Z,26.09
2022-09-05T12:15:33.781Z,25.81
2022-09-05T12:18:19.435Z,25.50
2022-09-05T12:21:03.428Z,25.35
2022-09-05T12:24:53.377Z,25.57
2022-09-05T12:27:42.867Z,26.11
2022-09-05T12:29:59.356Z,26.24
2022-09-05T12:36:07.239Z,25.63
2022-09-05T12:40:52.913Z,25.50
2022-09-05T12:41:44.997Z,25.30
2022-09-05T12:42:09.961Z,25.96
2022-09-05T12:45:09.686Z,24.99
2022-09-05T12:48:12.321Z,24.75
2022-09-05T12:51:00.304Z,24.63
2022-09-05T12:53:39.700Z,24.93
2022-09-05T12:58:21.356Z,25.27
2022-09-05T13:02:57.718Z,25.61
2022-09-05T13:03:08.950Z,25.84
2022-09-05T13:05:01.901Z,25.91
2022-09-05T13:07:38.798Z,25.82
2022-09-05T13:13:27.439Z,25.98
2022-09-05T13:14:58.635Z,26.14
2022-09-05T13:16:30.686Z,25.92
2022-09-05T13:19:07.284Z,25.72
2022-09-05T13:21:45.459Z,25.73
2022-09-05T13:24:17.291Z,25.78
2022-09-05T13:26:57.548Z,25.89
2022-09-05T13:29:52.550Z,25.99
2022-09-05T13:32:32.342Z,26.08
2022-09-05T13:38:17.737Z,26.25
2022-09-05T13:41:04.324Z,26.08
2022-09-05T13:43:38.231Z,26.00
2022-09-05T13:46:09.557Z,25.96
2022-09-05T13:51:43.643Z,26.01
2022-09-05T13:54:36.187Z,25.86
2022-09-05T13:57:32.521Z,25.74
2022-09-05T14:00:28.356Z,25.51
2022-09-05T14:03:38.979Z,25.36
2022-09-05T14:06:45.794Z,25.23
2022-09-05T14:09:38.538Z,25.14
2022-09-05T14:12:11.779Z,25.14
2022-09-05T14:15:14.093Z,25.04
2022-09-05T14:17:55.854Z,25.04
2022-09-05T14:20:47.313Z,25.09
2022-09-05T14:23:18.805Z,25.01
2022-09-05T14:25:57.910Z,24.98
2022-09-05T14:28:33.583Z,25.02
2022-09-05T14:35:22.129Z,25.02
2022-09-05T14:37:40.130Z,25.01
2022-09-05T14:37:43.860Z,25.01
2022-09-05T14:40:29.613Z,24.93
2022-09-05T14:43:34.488Z,24.87
2022-09-05T14:46:39.048Z,24.88
2022-09-05T14:49:34.402Z,24.84
2022-09-05T14:52:14.974Z,24.81
2022-09-05T15:02:42.810Z,24.89
2022-09-05T15:02:44.983Z,24.92
2022-09-05T15:03:12.432Z,24.86
2022-09-05T15:05:45.576Z,24.84
2022-09-05T15:10:21.955Z,24.85
2022-09-05T15:12:17.891Z,24.84
2022-09-05T15:14:04.079Z,24.88
2022-09-05T15:16:38.641Z,24.93
2022-09-05T15:19:08.631Z,24.91
2022-09-05T15:21:38.338Z,24.94
2022-09-05T15:24:24.290Z,24.97
2022-09-05T15:26:59.289Z,24.94
2022-09-05T15:29:31.931Z,24.92
2022-09-05T15:32:22.457Z,24.88
2022-09-05T15:34:50.774Z,24.86
2022-09-05T15:37:40.354Z,24.78
2022-09-05T15:40:22.482Z,24.79
2022-09-05T15:42:56.672Z,24.79
2022-09-05T15:45:27.771Z,24.82
2022-09-05T15:48:21.318Z,24.84
2022-09-05T15:50:51.725Z,24.82
2022-09-05T15:53:36.921Z,24.83
2022-09-05T15:56:09.572Z,24.82
2022-09-05T15:58:53.595Z,24.81
2022-09-05T16:01:59.096Z,24.79
2022-09-05T16:10:28.638Z,24.77
2022-09-05T16:10:40.967Z,24.68
2022-09-05T16:10:41.777Z,24.72
2022-09-05T16:13:17.203Z,24.67
2022-09-05T16:22:59.585Z,24.67
2022-09-05T16:23:30.263Z,24.53
2022-09-05T16:23:31.434Z,24.63
2022-09-05T16:24:57.803Z,24.55
2022-09-05T16:27:21.724Z,24.48
2022-09-05T16:29:50.537Z,24.43
2022-09-05T16:32:29.335Z,24.37
2022-09-05T16:35:01.726Z,24.32
2022-09-05T16:37:41.610Z,24.27
2022-09-05T16:40:11.748Z,24.23
2022-09-05T16:42:49.421Z,24.18
2022-09-05T16:45:34.838Z,24.21
2022-09-05T16:48:15.184Z,24.25
2022-09-05T16:50:55.389Z,24.28
2022-09-05T16:53:58.215Z,24.27
2022-09-05T16:56:44.537Z,24.25
2022-09-05T16:59:19.281Z,24.24
2022-09-05T17:02:06.106Z,24.24
2022-09-05T17:05:04.266Z,24.22
2022-09-05T17:07:52.687Z,24.18
2022-09-05T17:10:25.615Z,24.13
2022-09-05T17:12:55.875Z,24.07
2022-09-05T17:15:51.652Z,24.01
2022-09-05T17:18:24.974Z,23.91
2022-09-05T17:20:59.202Z,23.84
2022-09-05T17:29:28.935Z,23.70
2022-09-05T17:29:49.406Z,23.79
2022-09-05T17:32:39.507Z,23.52
2022-09-05T17:35:18.469Z,23.44
2022-09-05T17:38:11.709Z,23.36
2022-09-05T17:41:05.224Z,23.29
2022-09-05T17:43:34.978Z,23.17
2022-09-05T17:46:34.610Z,23.11
2022-09-05T17:49:18.023Z,23.04
2022-09-05T17:51:52.313Z,22.98
2022-09-05T17:54:29.999Z,22.93
2022-09-05T17:57:16.404Z,22.87
2022-09-05T17:59:42.895Z,22.80
2022-09-05T18:02:09.446Z,22.74
2022-09-05T18:04:53.807Z,22.71
2022-09-05T18:07:26.287Z,22.67
2022-09-05T18:10:05.946Z,22.60
2022-09-05T18:13:13.486Z,22.58
2022-09-05T18:15:32.493Z,22.53
2022-09-05T18:18:08.678Z,22.50
2022-09-05T18:21:12.253Z,22.38
2022-09-05T18:26:42.762Z,22.29
2022-09-05T18:29:24.724Z,22.24
2022-09-05T18:32:11.258Z,22.13
2022-09-05T18:34:37.665Z,22.12
2022-09-05T18:37:36.506Z,22.06
2022-09-05T18:40:16.665Z,22.01
2022-09-05T18:43:10.352Z,21.87
2022-09-05T18:45:38.860Z,21.78
2022-09-05T18:48:29.999Z,21.73
2022-09-05T18:51:15.308Z,21.68
2022-09-05T18:53:47.393Z,21.63
2022-09-05T18:57:19.879Z,21.54
2022-09-05T18:59:48.404Z,21.44
2022-09-05T19:02:50.303Z,21.34
2022-09-05T19:05:37.852Z,21.25
2022-09-05T19:08:29.108Z,21.25
2022-09-05T19:11:01.673Z,21.21
2022-09-05T19:13:49.012Z,21.16
2022-09-05T19:16:43.787Z,21.18
2022-09-05T19:19:24.939Z,21.13
2022-09-05T19:23:02.652Z,21.06
2022-09-05T19:24:46.066Z,21.04
2022-09-05T19:28:48.545Z,21.01
2022-09-05T19:36:50.763Z,20.98
2022-09-05T19:36:57.369Z,20.85
2022-09-05T19:37:11.015Z,20.84
2022-09-05T19:38:23.681Z,20.80
2022-09-05T19:47:29.782Z,20.78
2022-09-05T19:47:40.057Z,20.74
2022-09-05T19:47:56.351Z,20.64
2022-09-05T19:49:12.887Z,20.59
2022-09-05T19:51:41.191Z,20.49
2022-09-05T19:54:22.176Z,20.42
2022-09-05T19:56:48.776Z,20.33
2022-09-05T19:59:22.816Z,20.31
2022-09-05T20:01:51.632Z,20.33
2022-09-05T20:04:19.516Z,20.25
2022-09-05T20:06:47.541Z,20.21
2022-09-05T20:09:19.411Z,20.17
2022-09-05T20:11:49.656Z,20.14
2022-09-05T20:14:28.928Z,20.08
2022-09-05T20:17:16.845Z,19.98
2022-09-05T20:19:43.920Z,19.95
2022-09-05T20:22:47.913Z,19.93
2022-09-05T20:25:05.583Z,19.94
2022-09-05T20:27:32.084Z,19.86
2022-09-05T20:30:08.246Z,19.78
2022-09-05T20:32:42.120Z,19.76
2022-09-05T20:41:32.140Z,19.78
2022-09-05T20:43:14.456Z,19.59
2022-09-05T20:43:26.645Z,19.60
2022-09-05T20:43:55.792Z,19.58
2022-09-05T20:51:03.986Z,19.52
2022-09-05T20:54:14.520Z,19.42
2022-09-05T20:54:28.316Z,19.41
2022-09-05T20:55:40.052Z,19.33
2022-09-05T20:58:24.665Z,19.35
2022-09-05T21:01:22.764Z,19.29
2022-09-05T21:03:58.780Z,19.22
2022-09-05T21:06:26.667Z,19.13
2022-09-05T21:09:06.873Z,19.22
2022-09-05T21:11:33.862Z,19.20
2022-09-05T21:14:04.318Z,19.14
2022-09-05T21:16:39.837Z,19.05
2022-09-05T21:19:07.668Z,19.17
2022-09-05T21:21:34.790Z,19.16
2022-09-05T21:24:17.269Z,19.11
2022-09-05T21:26:49.509Z,19.06
2022-09-05T21:29:24.955Z,19.03
2022-09-05T21:31:57.670Z,18.98
2022-09-05T21:34:31.118Z,18.88
2022-09-05T21:37:06.569Z,18.83
2022-09-05T21:39:39.816Z,18.84
2022-09-05T21:42:30.699Z,18.81
2022-09-05T21:47:41.946Z,18.85
2022-09-05T21:47:52.357Z,18.63
2022-09-05T21:50:30.702Z,18.69
2022-09-05T21:54:06.563Z,18.74
2022-09-05T21:59:22.459Z,18.72
2022-09-05T21:59:29.147Z,18.71
2022-09-05T22:01:44.665Z,18.72
2022-09-05T22:04:09.271Z,18.74
2022-09-05T22:06:36.752Z,18.73
2022-09-05T22:09:13.363Z,18.76
2022-09-05T22:11:40.971Z,18.70
2022-09-05T22:14:08.959Z,18.72
2022-09-05T22:16:40.050Z,18.76
2022-09-05T22:19:12.608Z,18.68
2022-09-05T22:21:39.859Z,18.71
2022-09-05T22:24:10.167Z,18.64
2022-09-05T22:27:10.749Z,18.68
2022-09-05T22:29:34.375Z,18.65
2022-09-05T22:32:01.125Z,18.50
2022-09-05T22:34:30.828Z,18.45
2022-09-05T22:36:57.480Z,18.52
2022-09-05T22:39:37.187Z,18.54
2022-09-05T22:42:10.633Z,18.40
2022-09-05T22:44:39.427Z,18.35
2022-09-05T22:47:08.388Z,18.22
2022-09-05T22:49:36.433Z,18.15
2022-09-05T22:52:05.367Z,18.19
2022-09-05T22:54:31.904Z,18.21
2022-09-05T22:56:58.346Z,18.19
2022-09-05T22:59:24.754Z,18.13
2022-09-05T23:01:51.433Z,18.07
2022-09-05T23:04:17.997Z,18.13
2022-09-05T23:06:44.404Z,18.19
2022-09-05T23:09:10.824Z,18.07
2022-09-05T23:11:37.292Z,18.00
2022-09-05T23:14:03.770Z,17.93
2022-09-05T23:16:30.151Z,17.99
2022-09-05T23:18:56.566Z,17.99
2022-09-05T23:21:22.982Z,17.95
2022-09-05T23:23:49.466Z,17.90
2022-09-05T23:26:16.132Z,17.91
2022-09-05T23:28:43.721Z,17.87
2022-09-05T23:31:11.276Z,17.81
2022-09-05T23:33:41.474Z,17.79
2022-09-05T23:36:13.464Z,17.82
2022-09-05T23:38:42.241Z,17.78
2022-09-05T23:41:12.788Z,17.79
2022-09-05T23:43:39.233Z,17.79
2022-09-05T23:46:05.924Z,17.75
2022-09-05T23:48:32.345Z,17.62
2022-09-05T23:51:08.433Z,17.72
2022-09-05T23:53:34.891Z,17.70
2022-09-05T23:56:07.678Z,17.68
2022-09-05T23:58:35.569Z,17.62
